Portada
METAR-TAF:

METAR-TAF

Aeroports :

Mandalay, Myanmar

latitud: 21-59N, longitud: 096-06E, altitud: 74 m

Observació

L'informe es va fer fa 57 minuts, a les 09:30 UTC
Vent 10 kt del Nord/Nord-Oest
Temperatura 38°C
Humitat 26%
Pressió 1004 hPa
Visibilitat: 6000 m
Escasses núvols a una alçada de 2000 ft

METAR: VYMD 020930Z 34010KT 6000 FEW020 38/15 Q1004

Hora: 16:57 (10:27 UTC)

Pronòstic

L'informe es va fer fa 5 hores i 27 minuts, a les 05:00 UTC
Pronòstic vàlid del 02 a les 06 UTC al 03 a les 06 UTC
Vent 6 kt del Sud
Visibilitat: 7000 m
Escasses núvols a una alçada de 2000 ft
Temporalment
l' 02 a les 06 UTC al 02 a les 12 UTC
Vent 8 kt del Sud/Sud-Oest
Visibilitat: 6000 m
Núvols disperses a una alçada de 2000 ft

TAF: VYMD 020500Z 0206/0306 19006KT 7000 FEW020 TEMPO 0206/0212 20008KT 6000 SCT020

Observacions i pronòstics meteorològics de més de 4000 aeroports (METAR i TAF).

Les estacions disponibles són els punts grocs i vermells al mapa.

Posi el ratolí al punt desitjat per veure el nom de l'estació.

Feu clic per veure les observacions i els pronòstics meteorològics.

Per canviar el mapa: feu clic els botons verds amb una creu de color negre per apropar; al botó verd amb un guió per allunyar la imatge; o en les fletxes verdes per a mapes adjacents.


METAR-TAF: